首页
METAR-TAF:

METAR-TAF

机场 :

特里布万国际机场

加德滿都, 尼泊尔

纬度: 27-42N, 经度: 085-22E, 海拔: 1337米

当前天气观测

该预报发布于41分钟前的09:50 UTC
风速9节,风向西
温度 23°C
湿度 50%
气压 1019 hPa
能见度10公里或以上
少量云层高于2000英尺

METAR: VNKT 150950Z 28009KT 9999 FEW020 23/12 Q1019 NOSIG

时间: 16:16 (10:31 UTC)

预报

该预报发布于5小时和31分钟前的05:00 UTC
预报有效从15日的 06点(UTC)到 16日的 06点(UTC)
风速3节,风向东转东南
能見度: 6000
少量云层高于1500英尺
散云层高于10000英尺
成为
从 15日的 07点(UTC)到 15日的 08点(UTC)
风速8节,风向西
能見度: 8000
少量云层高于2000英尺
散云层高于10000英尺
成为
从 15日的 13点(UTC)到 15日的 14点(UTC)
风速3节,风向
能見度: 6000
少量云层高于1500英尺
散云层高于10000英尺
成为
从 16日的 00点(UTC)到 16日的 02点(UTC)
风速节,风向
能見度: 5000
少量云层高于1000英尺
散云层高于2500英尺
轻雾
几率 30%
从 16日的 01点(UTC)到 16日的 03点(UTC)
能見度: 3000
轻雾
成为
从 16日的 04点(UTC)到 16日的 05点(UTC)
风速3节,风向东南
能見度: 6000
少量云层高于1500英尺
散云层高于10000英尺

TAF: VNKT 150500Z 1506/1606 12003KT 6000 FEW015 SCT100 BECMG 1507/1508 28008KT 8000 FEW020 SCT100 BECMG 1513/1514 10003KT 6000 FEW015 SCT100 BECMG 1600/1602 00000KT 5000 BR FEW010 SCT025 PROB30 1601/1603 3000 BR BECMG 1604/1605 13003KT 6000 FEW015 SCT100

超过4000个机场的气象观测和天气预报(METAR&TAF报告)。

可查询的气象台以黄色和红色小点在地图上表示。

将鼠标移到小点上方,可查看气象台名称。

然后点击查看天气观测和预报。

如需切换地图:点击带黑十字的绿色按钮放大地图;点击带横线的绿色按钮缩小地图;或者点击绿色箭头查看邻近地区的地图。


METAR-TAF: